Weather at Puka Puka Airport

Public forecast

Using degrees Celsius for public forecast. Weather courtesy of forecast.io.

Closest aviation weather report (METAR) to Puka Puka Airport

Closest report is Faa'a International Airport, 643.7 nm (1,192.1 km) WSW.

2022/12/08 12:00 (retrieved 40 minutes ago)

NTAA 081200Z AUTO 08004KT 020V160 CAVOK 25/20 Q1013 NOSIG

Closest aviation forecast (TAF) to Puka Puka Airport

Closest forecast is Faa'a International Airport, 643.7 nm (1,192.1 km) WSW.

2022/12/08 12:06 (retrieved 34 minutes ago)

TAF NTAA 081100Z 0812/0918 07008KT 9999 FEW025 BKN250 TEMPO 0820/0901 05015G25KT